Terminal Aerodrome Forecast
Issued by NWS

Home | Current Version | Previous Version | Text Only | Print | Product List | Glossary On
Versions: 1 2 3 4 5 6 7 8 9 10 11 12 13
800
FTUS42 KTBW 212328
TAFLAL
TAF
KLAL 212328Z 2200/2224 10006KT P6SM FEW050 FEW250
     FM220300 06003KT P6SM SCT250
     FM221400 07006KT P6SM FEW025 SCT250
     FM221700 07007KT P6SM SCT040 SCT250=

USA.gov is the U.S. government's official web portal to all federal, state and local government web resources and services.